Time;durP1;ratioP1;P1;durP2;ratioP2;P2;SDS_P1;SDS_P2;PMS_P1;PMS_P2;Temp;Humidity;BMP_temperature;BMP_pressure;BME280_temperature;BME280_humidity;BME280_pressure;Samples;Min_cycle;Max_cycle;Signal;HPM_P1;HPM_P2
2022/07/16 00:03:16;;;;;;;7.03;1.00;;;15.70;99.90;;;;;;5134242;27;20047;-83
2022/07/16 00:06:03;;;;;;;2.58;0.90;;;15.60;99.90;;;;;;5133569;27;20043;-83
2022/07/16 00:08:49;;;;;;;12.25;2.08;;;15.50;99.90;;;;;;5117696;27;20047;-84
2022/07/16 00:11:36;;;;;;;6.20;1.20;;;15.50;99.90;;;;;;5115880;27;20051;-84
2022/07/16 00:14:22;;;;;;;7.63;1.45;;;15.50;99.90;;;;;;5091583;27;20058;-83
2022/07/16 00:17:09;;;;;;;6.43;1.02;;;15.50;99.90;;;;;;5115717;27;20078;-84
2022/07/16 00:19:55;;;;;;;6.30;1.60;;;15.50;99.90;;;;;;5117009;27;20101;-84
2022/07/16 00:22:41;;;;;;;6.50;1.13;;;15.50;99.90;;;;;;5121379;27;20498;-85
2022/07/16 00:25:27;;;;;;;9.50;1.67;;;15.60;99.90;;;;;;5133751;27;20047;-83
2022/07/16 00:28:14;;;;;;;6.95;1.38;;;15.60;99.90;;;;;;5133214;27;20051;-83
2022/07/16 00:31:00;;;;;;;7.82;1.33;;;15.70;99.90;;;;;;5118661;27;20497;-83
2022/07/16 00:33:46;;;;;;;5.68;1.45;;;15.70;99.90;;;;;;5100069;27;20092;-84
2022/07/16 00:36:34;;;;;;;9.00;1.50;;;15.70;99.90;;;;;;5114701;27;20449;-84
2022/07/16 00:39:20;;;;;;;6.43;1.58;;;15.70;99.90;;;;;;5114608;27;20043;-85
2022/07/16 00:42:07;;;;;;;7.97;1.80;;;15.70;99.90;;;;;;5115940;27;20066;-85
2022/07/16 00:44:53;;;;;;;5.22;1.30;;;15.70;99.90;;;;;;5134924;27;20455;-85
2022/07/16 00:47:39;;;;;;;6.25;1.27;;;15.70;99.90;;;;;;5141341;27;20047;-85
2022/07/16 00:50:25;;;;;;;4.88;1.48;;;15.70;99.90;;;;;;5100816;27;20055;-84
2022/07/16 00:53:12;;;;;;;8.52;1.38;;;15.70;99.90;;;;;;5133827;27;20051;-85
2022/07/16 00:55:58;;;;;;;3.83;1.27;;;15.70;99.90;;;;;;5133139;27;20051;-84
2022/07/16 00:58:45;;;;;;;4.63;1.33;;;15.70;99.90;;;;;;5114496;27;20102;-85
2022/07/16 01:01:32;;;;;;;9.55;2.08;;;15.70;99.90;;;;;;5112998;27;20582;-85
2022/07/16 01:04:19;;;;;;;5.80;1.77;;;15.70;99.90;;;;;;5132593;27;20584;-85
2022/07/16 01:07:08;;;;;;;6.07;1.63;;;15.70;99.90;;;;;;5113443;27;20134;-83
2022/07/16 01:09:56;;;;;;;7.10;1.45;;;15.70;99.90;;;;;;5135953;27;20112;-83
2022/07/16 01:12:43;;;;;;;8.40;2.38;;;15.60;99.90;;;;;;5116150;27;20130;-84
2022/07/16 01:15:29;;;;;;;10.80;1.73;;;15.60;99.90;;;;;;5113246;27;20100;-85
2022/07/16 01:18:16;;;;;;;8.27;1.65;;;15.60;99.90;;;;;;5113089;27;20039;-84
2022/07/16 01:21:02;;;;;;;5.15;1.63;;;15.50;99.90;;;;;;5132615;27;20047;-84
2022/07/16 01:23:49;;;;;;;14.55;1.80;;;15.50;99.90;;;;;;5114001;27;20051;-84
2022/07/16 01:26:35;;;;;;;8.93;1.70;;;15.40;99.90;;;;;;5118803;27;20119;-84
2022/07/16 01:29:21;;;;;;;7.07;1.30;;;15.40;99.90;;;;;;5133068;27;20046;-84
2022/07/16 01:32:07;;;;;;;7.47;1.55;;;15.30;99.90;;;;;;5133202;27;20085;-85
2022/07/16 01:34:54;;;;;;;5.00;1.65;;;15.30;99.90;;;;;;5137134;27;20138;-85
2022/07/16 01:37:40;;;;;;;4.63;1.15;;;15.30;99.90;;;;;;5132520;27;20563;-85
2022/07/16 01:40:26;;;;;;;11.10;1.80;;;15.30;99.90;;;;;;5116659;27;20043;-86
2022/07/16 01:43:23;;;;;;;8.45;1.25;;;15.30;99.90;;;;;;5132734;27;20092;-85
2022/07/16 01:46:09;;;;;;;5.57;1.20;;;15.30;99.90;;;;;;5098444;27;20047;-84
2022/07/16 01:48:57;;;;;;;10.20;1.30;;;15.30;99.90;;;;;;5135647;27;20061;-85
2022/07/16 01:51:43;;;;;;;7.38;1.55;;;15.30;99.90;;;;;;5135019;27;20043;-85
2022/07/16 01:54:29;;;;;;;5.18;1.88;;;15.30;99.90;;;;;;5099098;27;20495;-83
2022/07/16 01:57:17;;;;;;;4.63;1.45;;;15.30;99.90;;;;;;5110353;28;20055;-84
2022/07/16 02:00:04;;;;;;;5.78;1.67;;;15.30;99.90;;;;;;5112294;28;20051;-84
2022/07/16 02:02:50;;;;;;;7.45;1.42;;;15.30;99.90;;;;;;5113354;28;20036;-84
2022/07/16 02:05:37;;;;;;;6.07;2.00;;;15.30;99.90;;;;;;5113743;28;20185;-84
2022/07/16 02:08:23;;;;;;;9.70;2.40;;;15.30;99.90;;;;;;5100171;28;20055;-84
2022/07/16 02:11:09;;;;;;;7.97;1.80;;;15.30;99.90;;;;;;5113935;28;20048;-84
2022/07/16 02:13:55;;;;;;;7.47;1.60;;;15.30;99.90;;;;;;5118804;28;20111;-83
2022/07/16 02:16:42;;;;;;;9.55;2.13;;;15.30;99.90;;;;;;5115292;28;20052;-83
2022/07/16 02:19:28;;;;;;;7.13;1.75;;;15.30;99.90;;;;;;5110445;28;20100;-84
2022/07/16 02:22:15;;;;;;;6.90;1.75;;;15.30;99.90;;;;;;5110279;28;20380;-84
2022/07/16 02:25:04;;;;;;;5.18;1.50;;;15.30;99.90;;;;;;5111406;28;20050;-85
2022/07/16 02:28:06;;;;;;;6.22;1.98;;;15.20;99.90;;;;;;5111039;28;20086;-84
2022/07/16 02:30:52;;;;;;;8.45;2.15;;;15.20;99.90;;;;;;5110617;28;20047;-84
2022/07/16 02:33:38;;;;;;;5.93;1.60;;;15.20;99.90;;;;;;5115772;28;20055;-83
2022/07/16 02:36:24;;;;;;;5.93;1.42;;;15.20;99.90;;;;;;5116627;28;20108;-84
2022/07/16 02:39:10;;;;;;;6.70;1.60;;;15.20;99.90;;;;;;5111926;28;20043;-84
2022/07/16 02:41:56;;;;;;;6.30;1.88;;;15.10;99.90;;;;;;5109886;28;20048;-85
2022/07/16 02:44:43;;;;;;;9.68;1.67;;;15.10;99.90;;;;;;5115347;28;20044;-85
2022/07/16 02:47:29;;;;;;;6.18;1.55;;;15.10;99.90;;;;;;5109769;28;20526;-85
2022/07/16 02:50:15;;;;;;;7.57;1.50;;;15.20;99.90;;;;;;5108400;28;20047;-84
2022/07/16 02:53:01;;;;;;;8.90;2.17;;;15.20;99.90;;;;;;5109748;28;20040;-86
2022/07/16 02:55:48;;;;;;;8.85;1.70;;;15.20;99.90;;;;;;5099720;28;20055;-86
2022/07/16 02:58:34;;;;;;;4.93;1.35;;;15.20;99.90;;;;;;5091837;28;20047;-84
2022/07/16 03:01:20;;;;;;;6.40;1.88;;;15.20;99.90;;;;;;5091414;28;20128;-85
2022/07/16 03:04:06;;;;;;;11.10;1.98;;;15.20;99.90;;;;;;5096124;28;20139;-83
2022/07/16 03:06:52;;;;;;;8.32;1.60;;;15.20;99.90;;;;;;5081145;28;20806;-84
2022/07/16 03:09:38;;;;;;;9.38;1.48;;;15.30;99.90;;;;;;5112564;28;20502;-82
2022/07/16 03:12:25;;;;;;;13.55;1.75;;;15.20;99.90;;;;;;5092701;28;20087;-83
2022/07/16 03:15:12;;;;;;;7.53;1.42;;;15.20;99.90;;;;;;5115394;28;20044;-85
2022/07/16 03:17:58;;;;;;;8.55;1.45;;;15.20;99.90;;;;;;5101498;28;20158;-84
2022/07/16 03:20:44;;;;;;;8.05;2.13;;;15.20;99.90;;;;;;5092216;28;20047;-84
2022/07/16 03:23:30;;;;;;;9.25;1.60;;;15.10;99.90;;;;;;5092867;28;20050;-84
2022/07/16 03:26:17;;;;;;;8.38;1.20;;;15.10;99.90;;;;;;5110784;28;20048;-84
2022/07/16 03:29:03;;;;;;;4.82;0.80;;;15.00;99.90;;;;;;5078238;28;20044;-84
2022/07/16 03:31:50;;;;;;;7.00;1.10;;;15.00;99.90;;;;;;5109195;28;20048;-84
2022/07/16 03:34:36;;;;;;;9.20;1.08;;;15.00;99.90;;;;;;5110436;28;20040;-85
2022/07/16 03:37:22;;;;;;;9.45;1.17;;;15.00;99.90;;;;;;5099415;28;20457;-84
2022/07/16 03:40:11;;;;;;;7.93;1.40;;;15.10;99.90;;;;;;5083966;28;20491;-85
2022/07/16 03:42:57;;;;;;;9.82;1.23;;;15.10;99.90;;;;;;5091198;28;20173;-83
2022/07/16 03:45:43;;;;;;;6.00;1.38;;;15.10;99.90;;;;;;5095384;28;20052;-85
2022/07/16 03:48:30;;;;;;;6.28;1.20;;;15.20;99.90;;;;;;5109191;28;20089;-84
2022/07/16 03:51:16;;;;;;;12.77;1.80;;;15.20;99.90;;;;;;5091629;28;20044;-85
2022/07/16 03:54:06;;;;;;;6.82;1.60;;;15.20;99.90;;;;;;5109558;28;20048;-84
2022/07/16 03:56:52;;;;;;;7.88;1.90;;;15.20;99.90;;;;;;5120399;28;20055;-83
2022/07/16 03:59:38;;;;;;;8.10;1.73;;;15.20;99.90;;;;;;5130778;28;20043;-84
2022/07/16 04:02:24;;;;;;;5.18;1.38;;;15.20;99.90;;;;;;5133891;28;20050;-84
2022/07/16 04:05:10;;;;;;;6.95;1.52;;;15.20;99.90;;;;;;5116542;27;20046;-84
2022/07/16 04:07:57;;;;;;;7.85;1.30;;;15.20;99.90;;;;;;5119240;27;20376;-84
2022/07/16 04:10:43;;;;;;;10.13;1.35;;;15.20;99.90;;;;;;5133813;27;20082;-83
2022/07/16 04:13:29;;;;;;;7.88;1.50;;;15.10;99.90;;;;;;5134728;27;20462;-83
2022/07/16 04:16:15;;;;;;;4.15;0.90;;;15.10;99.90;;;;;;5133069;27;20055;-84
2022/07/16 04:19:01;;;;;;;6.75;1.10;;;15.10;99.90;;;;;;5102627;27;20097;-83
2022/07/16 04:21:48;;;;;;;7.88;1.60;;;15.10;99.90;;;;;;5133373;27;20051;-84
2022/07/16 04:24:34;;;;;;;5.57;0.93;;;15.00;99.90;;;;;;5133501;27;20120;-83
2022/07/16 04:27:20;;;;;;;8.57;1.27;;;15.00;99.90;;;;;;5116039;27;20059;-85
2022/07/16 04:30:10;;;;;;;8.27;0.95;;;15.10;99.90;;;;;;5122284;27;20107;-83
2022/07/16 04:32:56;;;;;;;8.30;1.83;;;15.00;99.90;;;;;;5134617;27;20039;-85
2022/07/16 04:35:42;;;;;;;5.68;1.23;;;15.00;99.90;;;;;;5132982;27;20043;-83
2022/07/16 04:38:29;;;;;;;8.32;0.93;;;15.00;99.90;;;;;;5117764;27;20525;-84
2022/07/16 04:41:15;;;;;;;5.28;1.05;;;14.90;99.90;;;;;;5133787;27;20047;-84
2022/07/16 04:44:01;;;;;;;8.68;1.30;;;14.90;99.90;;;;;;5115572;27;20082;-83
2022/07/16 04:46:47;;;;;;;9.10;2.05;;;14.90;99.90;;;;;;5114507;27;20058;-84
2022/07/16 04:49:33;;;;;;;7.90;1.60;;;14.90;99.90;;;;;;5117988;27;20051;-83
2022/07/16 04:52:20;;;;;;;8.27;1.05;;;14.90;99.90;;;;;;5122894;27;20054;-84
2022/07/16 04:55:07;;;;;;;9.23;2.15;;;14.90;99.90;;;;;;5134470;27;20482;-83
2022/07/16 04:57:53;;;;;;;10.38;1.05;;;14.80;99.90;;;;;;5112458;28;20051;-83
2022/07/16 05:00:40;;;;;;;4.97;0.80;;;14.90;99.90;;;;;;5113807;28;20056;-83
2022/07/16 05:03:26;;;;;;;5.68;0.93;;;14.90;99.90;;;;;;5112532;28;20483;-85
2022/07/16 05:06:12;;;;;;;8.63;1.48;;;15.00;99.90;;;;;;5113416;28;20106;-82
2022/07/16 05:09:01;;;;;;;7.88;1.33;;;15.00;99.90;;;;;;5113674;27;20043;-84
2022/07/16 05:11:47;;;;;;;4.95;0.85;;;15.10;99.90;;;;;;5098618;28;20054;-84
2022/07/16 05:14:33;;;;;;;7.15;1.90;;;15.20;99.90;;;;;;5119039;28;20044;-83
2022/07/16 05:17:19;;;;;;;10.68;1.00;;;15.20;99.90;;;;;;5111747;28;20056;-83
2022/07/16 05:20:06;;;;;;;10.27;1.63;;;15.30;99.90;;;;;;5098093;28;20052;-83
2022/07/16 05:22:53;;;;;;;7.00;0.95;;;15.30;99.90;;;;;;5113978;28;20450;-83
2022/07/16 05:25:39;;;;;;;8.15;1.05;;;15.40;99.90;;;;;;5111814;28;20058;-83
2022/07/16 05:28:25;;;;;;;4.95;0.80;;;15.50;99.90;;;;;;5114160;27;20048;-82
2022/07/16 05:31:11;;;;;;;7.28;1.23;;;15.50;99.90;;;;;;5112890;28;20062;-82
2022/07/16 05:33:58;;;;;;;5.25;0.77;;;15.60;99.90;;;;;;5116020;28;20040;-82
2022/07/16 05:36:44;;;;;;;4.97;1.13;;;15.70;99.90;;;;;;5114759;28;20485;-82
2022/07/16 05:39:30;;;;;;;9.07;2.38;;;15.70;99.90;;;;;;5111478;28;20048;-82
2022/07/16 05:42:16;;;;;;;5.18;1.52;;;15.80;99.90;;;;;;5111909;28;20048;-83
2022/07/16 05:45:04;;;;;;;7.68;1.00;;;15.80;99.90;;;;;;5112672;28;20047;-82
2022/07/16 05:47:50;;;;;;;3.63;0.95;;;15.80;99.90;;;;;;5113556;28;20044;-82
2022/07/16 05:50:36;;;;;;;5.10;0.70;;;15.90;99.90;;;;;;5112075;28;20070;-82
2022/07/16 05:53:23;;;;;;;4.88;0.80;;;15.90;99.90;;;;;;5113257;28;20058;-83
2022/07/16 05:56:09;;;;;;;5.88;0.98;;;15.90;99.90;;;;;;5098625;28;20815;-83
2022/07/16 05:59:01;;;;;;;4.97;0.80;;;15.90;99.90;;;;;;5098307;28;20098;-83
2022/07/16 06:01:48;;;;;;;3.35;0.73;;;16.00;99.90;;;;;;5093310;28;20048;-83
2022/07/16 06:04:34;;;;;;;7.07;0.93;;;16.10;99.90;;;;;;5093662;28;20503;-83
2022/07/16 06:07:20;;;;;;;5.07;0.77;;;16.20;99.90;;;;;;5096681;28;20054;-83
2022/07/16 06:10:07;;;;;;;5.68;0.88;;;16.20;99.90;;;;;;5111111;28;20066;-84
2022/07/16 06:12:53;;;;;;;8.63;1.55;;;16.30;99.90;;;;;;5111527;28;20497;-83
2022/07/16 06:15:39;;;;;;;5.90;1.17;;;16.40;99.90;;;;;;5079117;28;20055;-82
2022/07/16 06:18:26;;;;;;;5.18;0.68;;;16.40;99.90;;;;;;5110878;28;20108;-83
2022/07/16 06:21:12;;;;;;;6.97;1.05;;;16.50;99.90;;;;;;5097659;28;20083;-83
2022/07/16 06:23:58;;;;;;;4.00;0.68;;;16.50;99.90;;;;;;5092356;28;20086;-83
2022/07/16 06:26:48;;;;;;;5.65;0.82;;;16.40;99.90;;;;;;5111156;28;20085;-83
2022/07/16 06:29:34;;;;;;;4.88;0.93;;;16.30;99.90;;;;;;5111778;28;20058;-83
2022/07/16 06:32:20;;;;;;;6.57;1.27;;;16.10;99.90;;;;;;5110984;28;20043;-84
2022/07/16 06:35:07;;;;;;;7.38;0.90;;;16.00;99.90;;;;;;5112377;28;20044;-83
2022/07/16 06:37:53;;;;;;;4.68;0.93;;;16.10;99.90;;;;;;5092182;28;20101;-83
2022/07/16 06:40:43;;;;;;;7.95;0.88;;;16.30;99.90;;;;;;5096627;28;20564;-84
2022/07/16 06:43:29;;;;;;;4.65;0.85;;;16.50;99.90;;;;;;5095925;28;20428;-83
2022/07/16 06:46:16;;;;;;;4.70;0.70;;;16.50;99.90;;;;;;5110583;28;20090;-84
2022/07/16 06:49:02;;;;;;;3.55;0.60;;;16.70;99.90;;;;;;5110627;28;20054;-84
2022/07/16 06:51:49;;;;;;;4.50;1.00;;;16.90;99.90;;;;;;5110941;28;20766;-84
2022/07/16 06:54:35;;;;;;;11.30;1.15;;;16.90;99.90;;;;;;5095414;28;20418;-83
2022/07/16 06:57:22;;;;;;;7.90;1.08;;;16.90;99.90;;;;;;5123570;28;20059;-84
2022/07/16 07:00:09;;;;;;;9.07;1.00;;;16.90;99.90;;;;;;5131297;28;20134;-84
2022/07/16 07:02:55;;;;;;;7.80;1.63;;;16.70;99.90;;;;;;5098445;28;20051;-82
2022/07/16 07:05:41;;;;;;;7.72;0.90;;;16.60;99.90;;;;;;5112959;28;20039;-83
2022/07/16 07:08:28;;;;;;;5.95;0.80;;;16.80;99.90;;;;;;5102620;28;20043;-82
2022/07/16 07:11:14;;;;;;;7.63;1.45;;;17.10;99.90;;;;;;5132028;28;20043;-83
2022/07/16 07:14:00;;;;;;;5.78;0.90;;;17.40;99.90;;;;;;5113402;28;20066;-82
2022/07/16 07:16:48;;;;;;;5.03;0.80;;;17.60;99.90;;;;;;5099864;28;20051;-81
2022/07/16 07:19:34;;;;;;;7.78;0.90;;;17.80;99.90;;;;;;5132053;28;20044;-83
2022/07/16 07:22:21;;;;;;;5.03;0.80;;;18.00;99.90;;;;;;5133456;28;20437;-83
2022/07/16 07:25:07;;;;;;;5.13;1.05;;;18.10;99.90;;;;;;5132819;28;20108;-83
2022/07/16 07:27:54;;;;;;;4.10;0.70;;;18.10;99.90;;;;;;5131556;28;20051;-81
2022/07/16 07:30:40;;;;;;;8.85;0.98;;;18.00;99.90;;;;;;5112940;28;20043;-82
2022/07/16 07:33:27;;;;;;;9.40;1.13;;;18.20;99.90;;;;;;5131810;28;20047;-83
2022/07/16 07:36:14;;;;;;;8.43;1.30;;;18.30;99.30;;;;;;5131250;28;20096;-83
2022/07/16 07:39:00;;;;;;;8.52;0.90;;;18.40;99.50;;;;;;5133292;27;20402;-83
2022/07/16 07:41:46;;;;;;;6.28;1.05;;;18.70;99.50;;;;;;5135989;27;20043;-83
2022/07/16 07:44:33;;;;;;;5.53;0.90;;;18.90;99.40;;;;;;5101876;27;20091;-81
2022/07/16 07:47:19;;;;;;;6.28;0.98;;;18.80;99.40;;;;;;5120176;27;20047;-84
2022/07/16 07:50:06;;;;;;;7.50;1.00;;;19.00;99.90;;;;;;5135226;27;20047;-83
2022/07/16 07:52:53;;;;;;;6.13;1.02;;;19.00;98.90;;;;;;5116870;27;20745;-82
2022/07/16 07:55:39;;;;;;;7.95;1.55;;;19.10;99.00;;;;;;5117333;27;20055;-83
2022/07/16 07:58:25;;;;;;;7.88;1.20;;;19.20;98.50;;;;;;5117454;27;20062;-83
2022/07/16 08:01:11;;;;;;;7.85;0.95;;;19.30;98.30;;;;;;5121322;27;20055;-82
2022/07/16 08:03:58;;;;;;;8.32;1.30;;;19.50;97.90;;;;;;5120160;27;20050;-83
2022/07/16 08:06:44;;;;;;;6.50;0.82;;;19.70;97.30;;;;;;5139041;27;20478;-83
2022/07/16 08:09:31;;;;;;;8.82;1.33;;;19.60;96.50;;;;;;5141465;27;20047;-83
2022/07/16 08:12:17;;;;;;;7.68;0.80;;;19.50;96.10;;;;;;5131612;27;20414;-82
2022/07/16 08:15:04;;;;;;;8.50;1.48;;;19.60;96.20;;;;;;5137428;27;20502;-81
2022/07/16 08:17:50;;;;;;;6.40;1.25;;;19.80;96.40;;;;;;5141464;27;20073;-82
2022/07/16 08:20:38;;;;;;;6.53;1.48;;;19.90;95.50;;;;;;5138837;27;20466;-82
2022/07/16 08:26:32;;;;;;;3.13;0.70;;;19.90;95.20;;;;;;5135940;27;20413;-81
2022/07/16 08:29:18;;;;;;;4.68;0.90;;;19.90;94.50;;;;;;5137082;27;20047;-83
2022/07/16 08:32:05;;;;;;;6.78;1.15;;;20.10;94.50;;;;;;5136343;27;20047;-82
2022/07/16 08:34:51;;;;;;;7.53;1.10;;;20.20;94.60;;;;;;5117306;27;20080;-82
2022/07/16 08:37:40;;;;;;;6.32;1.05;;;20.30;94.10;;;;;;5136069;27;20156;-83
2022/07/16 08:40:26;;;;;;;8.07;1.33;;;20.50;93.90;;;;;;5134309;27;20058;-82
2022/07/16 08:43:13;;;;;;;5.15;1.20;;;20.70;93.70;;;;;;5134087;27;20043;-82
2022/07/16 08:46:00;;;;;;;7.63;1.33;;;20.80;93.40;;;;;;5133766;27;20506;-83
2022/07/16 08:48:51;;;;;;;7.80;1.17;;;20.90;93.70;;;;;;5134537;27;20043;-83
2022/07/16 08:51:39;;;;;;;7.63;1.20;;;21.00;93.90;;;;;;5133400;27;20504;-82
2022/07/16 08:54:28;;;;;;;6.07;1.00;;;20.80;94.20;;;;;;5114910;27;20424;-81
2022/07/16 08:57:15;;;;;;;5.13;1.15;;;20.80;93.70;;;;;;5132782;27;20074;-81
2022/07/16 09:00:02;;;;;;;4.55;0.80;;;21.00;94.10;;;;;;5119452;27;20490;-81
2022/07/16 09:02:48;;;;;;;5.00;0.93;;;20.80;93.70;;;;;;5134834;27;20041;-81
2022/07/16 09:05:35;;;;;;;6.80;1.02;;;21.10;94.70;;;;;;5116087;27;20090;-82
2022/07/16 09:08:21;;;;;;;7.30;1.27;;;21.40;93.80;;;;;;5134652;27;20055;-82
2022/07/16 09:11:30;;;;;;;4.00;0.88;;;21.50;93.50;;;;;;5135312;27;20519;-84
2022/07/16 09:14:18;;;;;;;5.55;1.00;;;21.00;92.90;;;;;;5114626;27;20055;-82
2022/07/16 09:17:04;;;;;;;8.35;1.20;;;21.10;92.80;;;;;;5132081;27;20051;-82
2022/07/16 09:19:51;;;;;;;7.00;1.23;;;20.90;93.20;;;;;;5117298;27;20516;-82
2022/07/16 09:22:37;;;;;;;5.25;0.70;;;21.20;93.20;;;;;;5134530;27;20191;-82
2022/07/16 09:25:24;;;;;;;6.78;1.02;;;21.20;92.90;;;;;;5133240;27;20046;-81
2022/07/16 09:28:10;;;;;;;4.93;1.08;;;21.30;92.70;;;;;;5115696;27;20073;-81
2022/07/16 09:30:57;;;;;;;4.57;0.80;;;21.40;92.10;;;;;;5118398;27;20369;-80
2022/07/16 09:33:44;;;;;;;5.90;0.82;;;21.50;92.40;;;;;;5134531;27;20039;-81
2022/07/16 09:36:30;;;;;;;9.57;1.30;;;21.70;91.60;;;;;;5133329;27;20051;-82
2022/07/16 09:39:18;;;;;;;7.07;1.15;;;21.90;92.00;;;;;;5114402;27;20068;-80
2022/07/16 09:42:04;;;;;;;6.80;0.88;;;22.10;91.80;;;;;;5115405;27;20123;-82
2022/07/16 09:44:51;;;;;;;7.60;0.85;;;22.10;92.00;;;;;;5134254;27;20139;-83
2022/07/16 09:47:37;;;;;;;4.78;0.85;;;22.20;91.30;;;;;;5117054;27;20058;-81
2022/07/16 09:50:34;;;;;;;5.18;1.08;;;22.20;91.40;;;;;;5134509;27;20054;-83
2022/07/16 09:53:25;;;;;;;7.85;1.45;;;22.30;90.90;;;;;;5115695;27;20053;-81
2022/07/16 09:56:16;;;;;;;4.47;1.02;;;22.60;90.10;;;;;;5129654;27;20055;-82
2022/07/16 09:59:03;;;;;;;4.35;0.80;;;22.40;90.00;;;;;;5112505;28;20043;-81
2022/07/16 10:01:49;;;;;;;6.60;1.13;;;22.40;90.90;;;;;;5096176;28;20075;-82
2022/07/16 10:04:35;;;;;;;4.05;1.08;;;22.50;89.20;;;;;;5093761;28;20077;-82
2022/07/16 10:07:22;;;;;;;7.65;1.20;;;22.50;90.20;;;;;;5111420;28;20047;-80
2022/07/16 10:10:12;;;;;;;9.07;1.33;;;22.80;89.00;;;;;;5113384;27;20048;-81
2022/07/16 10:12:58;;;;;;;5.88;1.25;;;22.70;88.10;;;;;;5111770;28;20492;-79
2022/07/16 10:15:46;;;;;;;4.80;0.98;;;23.10;88.50;;;;;;5111203;28;20082;-80
2022/07/16 10:18:43;;;;;;;5.25;0.98;;;23.30;89.20;;;;;;5095287;28;20100;-80
2022/07/16 10:21:29;;;;;;;6.45;0.95;;;23.10;86.80;;;;;;5110909;28;20669;-80
2022/07/16 10:24:15;;;;;;;10.80;1.65;;;23.00;87.90;;;;;;5110945;28;20043;-81
2022/07/16 10:27:32;;;;;;;9.13;1.65;;;23.00;90.50;;;;;;5110675;28;20116;-80
2022/07/16 10:30:21;;;;;;;4.78;0.82;;;23.20;89.10;;;;;;5110954;28;20053;-81
2022/07/16 10:33:10;;;;;;;6.20;1.17;;;23.20;89.70;;;;;;5110792;28;20135;-80
2022/07/16 10:36:06;;;;;;;6.18;1.50;;;23.00;89.30;;;;;;5093775;28;20055;-80
2022/07/16 10:39:05;;;;;;;6.38;1.20;;;22.80;89.50;;;;;;5111077;28;20047;-82
2022/07/16 10:42:00;;;;;;;8.02;1.10;;;22.40;90.60;;;;;;5111383;28;20055;-82
2022/07/16 10:44:50;;;;;;;4.70;0.93;;;22.50;90.90;;;;;;5110960;28;20418;-81
2022/07/16 10:47:45;;;;;;;6.22;1.10;;;22.90;90.60;;;;;;5079709;28;20047;-83
2022/07/16 10:50:32;;;;;;;7.72;1.30;;;22.80;87.30;;;;;;5110517;28;20048;-80
2022/07/16 10:53:19;;;;;;;6.82;0.82;;;22.60;89.70;;;;;;5093963;28;20148;-80
2022/07/16 10:56:31;;;;;;;8.13;2.03;;;22.90;90.30;;;;;;5079624;28;20050;-82
2022/07/16 10:59:21;;;;;;;9.02;1.35;;;23.30;88.10;;;;;;5092205;28;20130;-81
2022/07/16 11:02:12;;;;;;;4.47;1.15;;;23.50;87.90;;;;;;5109351;28;20043;-81
2022/07/16 11:04:58;;;;;;;5.72;1.13;;;24.00;88.10;;;;;;5109846;28;20390;-82
2022/07/16 11:07:45;;;;;;;7.75;1.73;;;24.30;86.20;;;;;;5109566;28;20090;-82
2022/07/16 11:10:31;;;;;;;6.05;0.98;;;24.00;85.80;;;;;;5109979;28;20043;-81
2022/07/16 11:13:18;;;;;;;7.78;1.15;;;24.00;85.30;;;;;;5117624;28;20533;-83
2022/07/16 11:16:08;;;;;;;5.00;0.80;;;23.70;86.30;;;;;;5098831;28;20522;-79
2022/07/16 11:18:55;;;;;;;7.80;1.83;;;24.10;85.60;;;;;;5096624;28;20104;-82
2022/07/16 11:22:01;;;;;;;6.43;1.05;;;24.30;83.20;;;;;;5114390;28;20101;-83
2022/07/16 11:24:54;;;;;;;7.35;2.00;;;24.40;82.10;;;;;;5096392;28;20055;-80
2022/07/16 11:27:41;;;;;;;6.40;1.02;;;24.30;83.90;;;;;;5113916;28;20566;-81
2022/07/16 11:30:28;;;;;;;5.50;0.95;;;24.30;84.50;;;;;;5095392;28;20058;-80
2022/07/16 11:33:31;;;;;;;6.50;1.00;;;23.90;83.70;;;;;;5113398;28;20052;-82
2022/07/16 11:36:19;;;;;;;7.53;0.90;;;23.70;82.30;;;;;;5082714;28;20126;-84
2022/07/16 11:39:11;;;;;;;7.88;1.65;;;23.70;83.30;;;;;;5101313;28;20471;-83
2022/07/16 11:41:58;;;;;;;5.78;0.88;;;23.60;83.40;;;;;;5095925;28;20406;-82
2022/07/16 11:44:45;;;;;;;4.25;0.77;;;23.50;83.80;;;;;;5095339;28;20047;-82
2022/07/16 11:47:31;;;;;;;5.25;1.00;;;24.00;81.90;;;;;;5114835;28;20044;-82
2022/07/16 11:50:27;;;;;;;3.70;1.00;;;24.20;80.40;;;;;;5096514;28;20551;-80
2022/07/16 11:53:14;;;;;;;6.65;1.30;;;24.30;76.20;;;;;;5115074;28;20044;-81
2022/07/16 11:56:00;;;;;;;3.35;0.73;;;24.60;77.00;;;;;;5097202;28;20056;-81
2022/07/16 11:58:46;;;;;;;4.60;0.88;;;25.00;76.50;;;;;;5115439;28;20058;-81
2022/07/16 12:01:37;;;;;;;3.45;0.70;;;25.10;75.40;;;;;;5114284;28;20047;-82
2022/07/16 12:04:36;;;;;;;5.35;0.70;;;24.90;74.00;;;;;;5082090;28;20491;-82
2022/07/16 12:07:25;;;;;;;2.58;0.60;;;25.10;71.30;;;;;;5097409;28;20108;-82
2022/07/16 12:10:11;;;;;;;3.00;0.57;;;25.30;71.70;;;;;;5115583;28;20062;-82
2022/07/16 12:13:06;;;;;;;2.75;0.60;;;25.60;67.70;;;;;;5098217;28;20040;-80
2022/07/16 12:15:53;;;;;;;;;;;25.50;66.00;;;;;;5115321;28;20044;-81
2022/07/16 12:18:39;;;;;;;6.15;0.90;;;25.60;67.00;;;;;;5117388;28;19923;-81
2022/07/16 12:21:34;;;;;;;3.95;0.85;;;25.70;65.80;;;;;;5100869;28;20437;-81
2022/07/16 12:24:32;;;;;;;;;;;25.80;66.70;;;;;;5096574;28;20055;-82
2022/07/16 12:27:19;;;;;;;5.20;1.25;;;25.30;65.80;;;;;;5095889;28;19942;-80
2022/07/16 12:30:07;;;;;;;5.88;0.90;;;25.90;68.10;;;;;;5084489;28;20062;-79
2022/07/16 12:32:53;;;;;;;4.60;0.77;;;26.00;67.40;;;;;;5096888;28;20387;-81
2022/07/16 12:35:59;;;;;;;4.18;0.82;;;25.60;66.00;;;;;;5102373;28;20054;-80
2022/07/16 12:38:54;;;;;;;4.47;0.90;;;25.60;65.70;;;;;;5097627;28;20104;-80
2022/07/16 12:41:41;;;;;;;;;;;25.80;65.20;;;;;;5119336;27;20048;-79
2022/07/16 12:44:28;;;;;;;6.07;0.82;;;26.30;66.80;;;;;;5117177;28;19926;-79
2022/07/16 12:47:14;;;;;;;4.85;0.90;;;26.40;65.00;;;;;;5085951;28;20130;-80
2022/07/16 12:50:00;;;;;;;5.45;0.95;;;26.70;63.90;;;;;;5100466;28;20044;-79
2022/07/16 12:52:47;;;;;;;5.68;1.10;;;27.10;63.30;;;;;;5098193;28;20143;-79
2022/07/16 12:58:47;;;;;;;6.72;1.48;;;26.80;61.40;;;;;;5113887;28;20062;-81
2022/07/16 13:01:33;;;;;;;5.50;0.82;;;26.90;62.30;;;;;;5100326;28;20054;-82
2022/07/16 13:04:20;;;;;;;7.07;1.10;;;26.40;62.10;;;;;;5114219;28;20104;-81
2022/07/16 13:07:06;;;;;;;5.00;1.13;;;26.20;63.10;;;;;;5113065;28;20067;-80
2022/07/16 13:09:53;;;;;;;6.13;1.15;;;26.00;64.40;;;;;;5112039;28;20048;-82
2022/07/16 13:12:40;;;;;;;9.27;1.30;;;25.90;64.40;;;;;;5099142;28;20051;-78
2022/07/16 13:15:26;;;;;;;9.50;1.40;;;25.70;65.30;;;;;;5112265;28;20081;-81
2022/07/16 13:18:12;;;;;;;5.50;1.23;;;26.60;65.80;;;;;;5111958;28;20514;-80
2022/07/16 13:20:58;;;;;;;5.45;0.88;;;26.90;64.50;;;;;;5112943;28;20080;-81
2022/07/16 13:23:46;;;;;;;7.20;0.98;;;27.40;64.60;;;;;;5114190;28;20047;-79
2022/07/16 13:26:34;;;;;;;5.20;0.93;;;27.20;61.60;;;;;;5112138;28;20048;-82
2022/07/16 13:29:21;;;;;;;7.70;1.13;;;27.50;60.70;;;;;;5115093;28;20048;-79
2022/07/16 13:32:07;;;;;;;5.80;0.90;;;27.40;58.60;;;;;;5098727;28;20437;-79
2022/07/16 13:34:53;;;;;;;3.35;0.80;;;27.30;59.70;;;;;;5112476;28;20052;-79
2022/07/16 13:37:42;;;;;;;3.03;0.82;;;27.60;59.50;;;;;;5111416;28;20169;-80
2022/07/16 13:40:28;;;;;;;5.25;1.23;;;26.90;58.70;;;;;;5109936;28;20471;-82
2022/07/16 13:43:16;;;;;;;6.38;1.30;;;27.30;59.00;;;;;;5112181;28;20043;-81
2022/07/16 13:46:05;;;;;;;5.82;1.20;;;27.30;59.20;;;;;;5112491;28;20052;-81
2022/07/16 13:48:51;;;;;;;6.75;0.88;;;27.60;59.60;;;;;;5112734;28;20048;-83
2022/07/16 13:51:37;;;;;;;5.20;1.00;;;27.00;59.50;;;;;;5112641;28;20077;-84
2022/07/16 13:54:24;;;;;;;6.82;1.00;;;27.70;58.90;;;;;;5099242;28;20085;-83
2022/07/16 14:00:15;;;;;;;4.85;1.00;;;27.50;56.50;;;;;;5112504;28;20105;-80
2022/07/16 14:03:01;;;;;;;6.00;1.25;;;27.30;57.20;;;;;;5110607;28;20104;-80
2022/07/16 14:05:48;;;;;;;4.65;0.95;;;27.30;57.50;;;;;;5110448;28;20077;-80
2022/07/16 14:08:34;;;;;;;5.03;1.02;;;28.10;57.70;;;;;;5112081;28;20510;-79
2022/07/16 14:11:21;;;;;;;5.53;1.05;;;28.60;55.60;;;;;;5092783;28;20039;-81
2022/07/16 14:14:07;;;;;;;4.53;0.80;;;28.80;53.70;;;;;;5111404;28;20578;-79
2022/07/16 14:16:53;;;;;;;5.80;1.08;;;28.80;53.80;;;;;;5111226;28;20047;-82
2022/07/16 14:19:39;;;;;;;7.30;0.90;;;28.50;52.80;;;;;;5111177;28;20050;-79
2022/07/16 14:22:26;;;;;;;6.30;1.83;;;29.30;53.40;;;;;;5112939;28;20048;-83
2022/07/16 14:25:12;;;;;;;6.32;0.90;;;29.80;51.90;;;;;;5110774;28;20728;-82
2022/07/16 14:27:59;;;;;;;6.45;1.00;;;29.70;52.60;;;;;;5092113;28;20473;-82
2022/07/16 14:30:46;;;;;;;6.47;1.00;;;29.10;52.70;;;;;;5068072;28;20044;-78
2022/07/16 14:33:32;;;;;;;5.90;1.10;;;28.60;52.20;;;;;;5112569;28;20044;-82
2022/07/16 14:36:18;;;;;;;5.70;1.08;;;28.40;52.90;;;;;;5110637;28;20051;-82
2022/07/16 14:39:04;;;;;;;5.05;0.90;;;27.80;54.40;;;;;;5111244;28;20142;-81
2022/07/16 14:41:53;;;;;;;5.07;1.02;;;28.20;56.50;;;;;;5111320;28;20101;-83
2022/07/16 14:44:39;;;;;;;8.98;1.33;;;28.60;54.10;;;;;;5091980;28;20411;-80